Foremost, Canada
Current Conditions -  °F | °C
As of 1:00 AM on Friday 24 Oct 2014 (Local Time) from CYXH Reporting Station
Scattered Clouds Scattered Clouds  
Wind Chill: 52°   Ceiling: Unl
Heat Index: 52°   Visibility: 9mi
Dew Point: 39°   Wind: 17mph
Humidity: 62%   Direction: 220°SW
Pressure: 29.69"   Gusts: NA
Location:  49.48°N, 111.43°W
Report Text: CYXH 240700Z AUTO 22015KT 9SM SCT190 11/04 A2969 RMK SLP056 DENSITY ALT 2700FT
Loading
Personal Weather Stations






























Interactive Weather Map
Tropical Storm Tracking
New forecast layout! Learn more

10-Day Weather Forecast

Advertisements
Track Severe Weather on mobile